createdAt,value
2022-11-06T00:01:09.198Z,7.75
2022-11-06T00:03:36.235Z,7.67
2022-11-06T00:06:34.509Z,7.63
2022-11-06T00:09:02.961Z,7.58
2022-11-06T00:11:30.177Z,7.61
2022-11-06T00:13:57.268Z,7.50
2022-11-06T00:16:24.379Z,7.44
2022-11-06T00:18:50.863Z,7.36
2022-11-06T00:21:19.899Z,7.37
2022-11-06T00:23:47.146Z,7.38
2022-11-06T00:26:16.529Z,7.53
2022-11-06T00:28:43.801Z,7.61
2022-11-06T00:31:13.408Z,7.58
2022-11-06T00:33:40.419Z,7.48
2022-11-06T00:36:08.972Z,7.50
2022-11-06T00:38:35.599Z,7.43
2022-11-06T00:41:04.244Z,7.52
2022-11-06T00:43:30.902Z,7.60
2022-11-06T00:46:04.224Z,7.46
2022-11-06T00:48:30.767Z,7.45
2022-11-06T00:51:03.065Z,7.45
2022-11-06T00:53:29.571Z,7.43
2022-11-06T00:56:03.076Z,7.47
2022-11-06T00:58:29.491Z,7.39
2022-11-06T01:00:55.898Z,7.43
2022-11-06T01:03:22.379Z,7.49
2022-11-06T01:05:48.778Z,7.49
2022-11-06T01:08:15.401Z,7.49
2022-11-06T01:10:42.013Z,7.47
2022-11-06T01:13:08.435Z,7.43
2022-11-06T01:15:37.074Z,7.43
2022-11-06T01:18:03.634Z,7.43
2022-11-06T01:20:30.032Z,7.31
2022-11-06T01:22:56.475Z,7.23
2022-11-06T01:25:22.896Z,7.17
2022-11-06T01:27:49.290Z,7.13
2022-11-06T01:30:15.721Z,7.08
2022-11-06T01:32:42.269Z,7.23
2022-11-06T01:35:08.939Z,7.10
2022-11-06T01:37:35.456Z,7.11
2022-11-06T01:40:02.017Z,7.15
2022-11-06T01:42:28.453Z,7.18
2022-11-06T01:45:19.701Z,7.10
2022-11-06T01:47:46.387Z,7.15
2022-11-06T01:50:15.750Z,7.13
2022-11-06T01:52:44.523Z,7.12
2022-11-06T01:55:25.628Z,7.17
2022-11-06T01:57:52.781Z,7.10
2022-11-06T02:00:20.198Z,7.08
2022-11-06T02:02:47.496Z,7.08
2022-11-06T02:05:14.311Z,7.04
2022-11-06T02:07:42.739Z,7.03
2022-11-06T02:10:09.962Z,6.91
2022-11-06T02:12:46.945Z,6.84
2022-11-06T02:15:54.553Z,6.79
2022-11-06T02:18:32.835Z,6.90
2022-11-06T02:20:59.258Z,6.98
2022-11-06T02:23:36.489Z,6.84
2022-11-06T02:26:27.290Z,6.88
2022-11-06T02:29:01.250Z,6.88
2022-11-06T02:31:32.631Z,6.99
2022-11-06T02:34:04.630Z,7.00
2022-11-06T02:36:37.638Z,7.01
2022-11-06T02:39:11.007Z,6.85
2022-11-06T02:41:42.579Z,6.88
2022-11-06T02:44:13.988Z,6.77
2022-11-06T02:46:43.586Z,6.66
2022-11-06T02:49:17.297Z,6.68
2022-11-06T02:51:51.207Z,6.77
2022-11-06T02:54:20.547Z,6.75
2022-11-06T02:56:52.593Z,6.68
2022-11-06T02:59:25.463Z,6.63
2022-11-06T03:01:58.214Z,6.65
2022-11-06T03:04:33.759Z,6.48
2022-11-06T03:07:10.210Z,6.39
2022-11-06T03:09:36.927Z,6.48
2022-11-06T03:12:21.337Z,6.56
2022-11-06T03:14:59.602Z,6.42
2022-11-06T03:17:37.892Z,6.35
2022-11-06T03:20:25.588Z,6.62
2022-11-06T03:23:01.018Z,6.55
2022-11-06T03:25:35.507Z,6.42
2022-11-06T03:28:12.393Z,6.35
2022-11-06T03:30:50.698Z,6.28
2022-11-06T03:33:19.533Z,6.28
2022-11-06T03:35:54.889Z,6.32
2022-11-06T03:38:45.561Z,6.39
2022-11-06T03:41:18.392Z,6.44
2022-11-06T03:43:48.151Z,6.54
2022-11-06T03:46:19.409Z,6.46
2022-11-06T03:48:52.635Z,6.37
2022-11-06T03:51:58.376Z,6.35
2022-11-06T03:54:38.418Z,6.33
2022-11-06T03:57:47.258Z,6.39
2022-11-06T04:00:14.845Z,6.40
2022-11-06T04:02:47.382Z,6.33
2022-11-06T04:05:19.306Z,6.36
2022-11-06T04:08:08.309Z,6.39
2022-11-06T04:10:56.028Z,6.42
2022-11-06T04:13:42.860Z,6.44
2022-11-06T04:16:11.158Z,6.41
2022-11-06T04:18:37.679Z,6.45
2022-11-06T04:21:26.027Z,6.54
2022-11-06T04:24:26.422Z,6.36
2022-11-06T04:27:15.918Z,6.38
2022-11-06T04:30:13.607Z,6.26
2022-11-06T04:33:00.417Z,6.22
2022-11-06T04:35:45.049Z,6.24
2022-11-06T04:38:16.194Z,6.07
2022-11-06T04:40:54.978Z,6.07
2022-11-06T04:43:28.555Z,6.11
2022-11-06T04:45:59.512Z,6.14
2022-11-06T04:48:27.162Z,6.07
2022-11-06T04:50:59.122Z,6.06
2022-11-06T04:53:26.144Z,6.03
2022-11-06T04:55:54.955Z,5.91
2022-11-06T04:58:21.439Z,5.91
2022-11-06T05:00:50.546Z,5.90
2022-11-06T05:03:18.634Z,5.92
2022-11-06T05:05:45.093Z,5.93
2022-11-06T05:08:19.596Z,5.87
2022-11-06T05:10:46.853Z,5.59
2022-11-06T05:13:14.230Z,5.52
2022-11-06T05:15:41.060Z,5.55
2022-11-06T05:18:07.568Z,5.47
2022-11-06T05:20:34.079Z,5.48
2022-11-06T05:23:00.988Z,5.61
2022-11-06T05:25:40.123Z,5.67
2022-11-06T05:28:08.345Z,5.65
2022-11-06T05:30:37.185Z,5.77
2022-11-06T05:33:03.812Z,5.70
2022-11-06T05:35:30.264Z,5.57
2022-11-06T05:38:01.808Z,5.57
2022-11-06T05:40:28.157Z,5.69
2022-11-06T05:42:54.577Z,5.69
2022-11-06T05:45:21.150Z,5.79
2022-11-06T05:47:47.564Z,5.77
2022-11-06T05:50:14.010Z,5.69
2022-11-06T05:52:40.443Z,5.70
2022-11-06T05:55:11.590Z,5.55
2022-11-06T05:57:40.797Z,5.50
2022-11-06T06:00:08.162Z,5.54
2022-11-06T06:02:36.877Z,5.63
2022-11-06T06:05:04.438Z,5.63
2022-11-06T06:07:31.639Z,5.58
2022-11-06T06:09:58.172Z,5.55
2022-11-06T06:12:26.340Z,5.57
2022-11-06T06:14:53.863Z,5.64
2022-11-06T06:17:20.923Z,5.74
2022-11-06T06:19:48.245Z,5.68
2022-11-06T06:22:14.690Z,5.82
2022-11-06T06:24:41.739Z,5.84
2022-11-06T06:27:08.302Z,5.83
2022-11-06T06:29:34.748Z,5.93
2022-11-06T06:32:01.134Z,5.95
2022-11-06T06:34:27.538Z,5.92
2022-11-06T06:36:54.289Z,6.00
2022-11-06T06:39:21.389Z,5.91
2022-11-06T06:41:48.813Z,5.84
2022-11-06T06:44:16.213Z,5.88
2022-11-06T06:46:42.698Z,5.90
2022-11-06T06:49:09.167Z,5.92
2022-11-06T06:51:35.588Z,5.99
2022-11-06T06:54:03.609Z,6.10
2022-11-06T06:56:30.086Z,6.25
2022-11-06T06:58:56.579Z,6.18
2022-11-06T07:01:23.114Z,6.15
2022-11-06T07:03:49.695Z,6.20
2022-11-06T07:06:19.379Z,6.20
2022-11-06T07:08:45.981Z,6.36
2022-11-06T07:11:12.631Z,6.47
2022-11-06T07:13:39.055Z,6.42
2022-11-06T07:16:07.623Z,6.39
2022-11-06T07:18:34.915Z,6.41
2022-11-06T07:21:04.869Z,6.52
2022-11-06T07:23:31.339Z,6.58
2022-11-06T07:25:57.808Z,6.58
2022-11-06T07:28:24.228Z,6.63
2022-11-06T07:30:50.669Z,6.77
2022-11-06T07:33:17.095Z,6.88
2022-11-06T07:35:44.451Z,7.04
2022-11-06T07:38:11.025Z,7.11
2022-11-06T07:40:37.752Z,7.22
2022-11-06T07:43:09.512Z,7.26
2022-11-06T07:45:36.876Z,7.34
2022-11-06T07:48:05.039Z,7.41
2022-11-06T07:50:32.163Z,7.43
2022-11-06T07:53:03.030Z,7.50
2022-11-06T07:55:30.197Z,7.56
2022-11-06T07:57:59.339Z,7.68
2022-11-06T08:00:25.819Z,7.78
2022-11-06T08:02:53.441Z,7.86
2022-11-06T08:05:20.614Z,7.96
2022-11-06T08:07:47.186Z,8.06
2022-11-06T08:10:13.742Z,8.10
2022-11-06T08:12:40.167Z,8.14
2022-11-06T08:15:07.136Z,8.18
2022-11-06T08:17:33.547Z,8.25
2022-11-06T08:19:59.935Z,8.33
2022-11-06T08:22:26.355Z,8.45
2022-11-06T08:24:52.800Z,8.50
2022-11-06T08:27:19.248Z,8.50
2022-11-06T08:29:45.721Z,8.58
2022-11-06T08:32:12.216Z,8.64
2022-11-06T08:34:38.848Z,8.70
2022-11-06T08:37:05.362Z,8.73
2022-11-06T08:39:31.905Z,8.81
2022-11-06T08:41:58.393Z,8.90
2022-11-06T08:44:24.895Z,8.94
2022-11-06T08:46:52.253Z,8.95
2022-11-06T08:49:19.122Z,8.98
2022-11-06T08:51:45.640Z,9.10
2022-11-06T08:54:12.313Z,9.17
2022-11-06T08:56:38.920Z,9.29
2022-11-06T08:59:05.428Z,9.38
2022-11-06T09:01:32.028Z,9.49
2022-11-06T09:03:58.597Z,9.53
2022-11-06T09:06:25.736Z,9.63
2022-11-06T09:08:52.188Z,9.76
2022-11-06T09:11:18.609Z,9.87
2022-11-06T09:13:44.996Z,9.89
2022-11-06T09:16:15.567Z,9.89
2022-11-06T09:18:43.110Z,9.93
2022-11-06T09:21:09.576Z,9.98
2022-11-06T09:23:36.128Z,10.06
2022-11-06T09:26:02.572Z,10.18
2022-11-06T09:28:28.973Z,10.35
2022-11-06T09:30:55.462Z,10.44
2022-11-06T09:33:21.899Z,10.59
2022-11-06T09:35:48.309Z,10.75
2022-11-06T09:38:17.367Z,10.89
2022-11-06T09:40:53.518Z,10.95
2022-11-06T09:44:04.246Z,11.00
2022-11-06T09:46:39.012Z,11.14
2022-11-06T09:49:15.252Z,11.25
2022-11-06T09:51:44.327Z,11.32
2022-11-06T09:54:19.930Z,11.42
2022-11-06T09:56:49.684Z,11.52
2022-11-06T09:59:19.310Z,11.59
2022-11-06T10:01:51.358Z,11.71
2022-11-06T10:04:41.265Z,11.87
2022-11-06T10:07:34.194Z,12.01
2022-11-06T10:10:02.460Z,12.06
2022-11-06T10:12:39.877Z,12.09
2022-11-06T10:15:18.153Z,12.28
2022-11-06T10:18:05.935Z,12.43
2022-11-06T10:20:51.483Z,12.42
2022-11-06T10:23:50.227Z,12.41
2022-11-06T10:26:34.075Z,12.30
2022-11-06T10:29:12.731Z,12.29
2022-11-06T10:31:46.834Z,12.35
2022-11-06T10:34:21.082Z,12.48
2022-11-06T10:36:54.959Z,12.54
2022-11-06T10:39:48.517Z,12.66
2022-11-06T10:42:19.148Z,12.84
2022-11-06T10:44:56.690Z,12.89
2022-11-06T10:47:27.116Z,12.88
2022-11-06T10:49:57.355Z,12.84
2022-11-06T10:52:45.531Z,12.78
2022-11-06T10:55:36.914Z,12.74
2022-11-06T10:58:05.030Z,12.81
2022-11-06T11:00:33.671Z,12.93
2022-11-06T11:03:02.298Z,13.01
2022-11-06T11:05:40.447Z,13.19
2022-11-06T11:08:26.942Z,13.23
2022-11-06T11:11:05.335Z,13.13
2022-11-06T11:13:32.786Z,13.10
2022-11-06T11:15:59.371Z,13.09
2022-11-06T11:18:34.345Z,13.15
2022-11-06T11:21:27.786Z,13.19
2022-11-06T11:24:10.913Z,13.21
2022-11-06T11:26:46.810Z,13.16
2022-11-06T11:29:22.566Z,13.10
2022-11-06T11:31:56.242Z,13.08
2022-11-06T11:34:29.414Z,13.03
2022-11-06T11:37:04.596Z,13.05
2022-11-06T11:39:35.193Z,13.10
2022-11-06T11:42:29.474Z,13.23
2022-11-06T11:45:18.775Z,13.36
2022-11-06T11:47:51.407Z,13.39
2022-11-06T11:50:19.922Z,13.39
2022-11-06T11:52:49.597Z,13.46
2022-11-06T11:55:22.141Z,13.47
2022-11-06T11:57:51.324Z,13.50
2022-11-06T12:00:23.576Z,13.50
2022-11-06T12:02:54.498Z,13.48
2022-11-06T12:05:32.861Z,13.43
2022-11-06T12:08:00.648Z,13.43
2022-11-06T12:10:27.072Z,13.40
2022-11-06T12:12:55.700Z,13.37
2022-11-06T12:15:33.408Z,13.41
2022-11-06T12:18:16.688Z,13.43
2022-11-06T12:20:57.248Z,13.37
2022-11-06T12:23:29.491Z,13.35
2022-11-06T12:26:37.220Z,13.35
2022-11-06T12:29:15.721Z,13.36
2022-11-06T12:31:50.213Z,13.46
2022-11-06T12:34:25.936Z,13.50
2022-11-06T12:37:18.401Z,13.51
2022-11-06T12:39:52.284Z,13.49
2022-11-06T12:42:22.197Z,13.49
2022-11-06T12:44:48.734Z,13.52
2022-11-06T12:47:44.983Z,13.57
2022-11-06T12:50:27.073Z,13.59
2022-11-06T12:52:53.502Z,13.67
2022-11-06T12:55:23.075Z,13.75
2022-11-06T12:58:11.221Z,13.85
2022-11-06T13:00:58.049Z,13.89
2022-11-06T13:03:38.490Z,13.84
2022-11-06T13:06:20.430Z,13.78
2022-11-06T13:09:01.915Z,13.80
2022-11-06T13:12:03.779Z,13.82
2022-11-06T13:14:42.545Z,13.90
2022-11-06T13:17:39.377Z,13.90
2022-11-06T13:20:29.802Z,13.98
2022-11-06T13:23:19.318Z,14.02
2022-11-06T13:25:55.254Z,14.01
2022-11-06T13:28:49.777Z,14.05
2022-11-06T13:31:20.207Z,14.06
2022-11-06T13:33:54.402Z,14.04
2022-11-06T13:36:21.113Z,14.10
2022-11-06T13:38:54.995Z,14.11
2022-11-06T13:41:28.497Z,14.13
2022-11-06T13:43:58.666Z,14.13
2022-11-06T13:46:33.427Z,14.16
2022-11-06T13:49:06.924Z,14.15
2022-11-06T13:51:43.887Z,14.12
2022-11-06T13:54:22.633Z,14.12
2022-11-06T13:57:07.603Z,14.07
2022-11-06T13:59:39.997Z,14.04
2022-11-06T14:02:27.861Z,14.02
2022-11-06T14:05:24.291Z,14.04
2022-11-06T14:07:52.400Z,14.02
2022-11-06T14:10:24.498Z,14.04
2022-11-06T14:12:51.701Z,14.02
2022-11-06T14:15:21.088Z,13.95
2022-11-06T14:17:58.628Z,13.96
2022-11-06T14:20:33.579Z,13.89
2022-11-06T14:23:31.154Z,13.84
2022-11-06T14:26:08.854Z,13.72
2022-11-06T14:28:37.925Z,13.65
2022-11-06T14:31:14.655Z,13.61
2022-11-06T14:33:42.081Z,13.55
2022-11-06T14:36:14.762Z,13.51
2022-11-06T14:38:42.580Z,13.48
2022-11-06T14:41:44.345Z,13.45
2022-11-06T14:44:39.201Z,13.39
2022-11-06T14:47:08.435Z,13.34
2022-11-06T14:49:43.866Z,13.29
2022-11-06T14:52:15.662Z,13.25
2022-11-06T14:54:53.753Z,13.23
2022-11-06T14:57:43.606Z,13.21
2022-11-06T15:00:32.012Z,13.18
2022-11-06T15:02:59.262Z,13.15
2022-11-06T15:05:26.992Z,13.10
2022-11-06T15:08:15.034Z,13.07
2022-11-06T15:10:44.719Z,13.02
2022-11-06T15:13:17.210Z,12.99
2022-11-06T15:15:47.920Z,12.94
2022-11-06T15:18:22.691Z,12.90
2022-11-06T15:20:53.439Z,12.87
2022-11-06T15:23:25.173Z,12.89
2022-11-06T15:26:02.282Z,12.93
2022-11-06T15:28:34.517Z,12.96
2022-11-06T15:31:12.673Z,12.93
2022-11-06T15:33:55.728Z,12.93
2022-11-06T15:36:23.659Z,12.93
2022-11-06T15:38:50.272Z,12.93
2022-11-06T15:41:20.887Z,12.90
2022-11-06T15:43:50.574Z,12.88
2022-11-06T15:46:25.812Z,12.83
2022-11-06T15:49:16.773Z,12.76
2022-11-06T15:52:02.618Z,12.70
2022-11-06T15:54:35.992Z,12.66
2022-11-06T15:57:06.161Z,12.64
2022-11-06T15:59:32.631Z,12.62
2022-11-06T16:02:05.208Z,12.58
2022-11-06T16:04:32.569Z,12.49
2022-11-06T16:07:00.764Z,12.39
2022-11-06T16:09:27.706Z,12.33
2022-11-06T16:11:54.701Z,12.27
2022-11-06T16:14:22.180Z,12.23
2022-11-06T16:16:53.241Z,12.19
2022-11-06T16:19:19.608Z,12.14
2022-11-06T16:21:54.086Z,12.08
2022-11-06T16:24:20.640Z,12.01
2022-11-06T16:26:49.395Z,11.95
2022-11-06T16:29:23.523Z,11.92
2022-11-06T16:32:00.213Z,11.83
2022-11-06T16:34:35.733Z,11.75
2022-11-06T16:37:08.094Z,11.75
2022-11-06T16:39:53.905Z,11.72
2022-11-06T16:42:26.761Z,11.70
2022-11-06T16:44:59.396Z,11.67
2022-11-06T16:47:26.223Z,11.65
2022-11-06T16:49:54.817Z,11.64
2022-11-06T16:52:34.792Z,11.52
2022-11-06T16:55:07.104Z,11.41
2022-11-06T16:57:36.968Z,11.38
2022-11-06T17:00:15.591Z,11.37
2022-11-06T17:02:50.691Z,11.39
2022-11-06T17:05:21.643Z,11.36
2022-11-06T17:07:49.276Z,11.27
2022-11-06T17:10:34.352Z,11.17
2022-11-06T17:13:19.994Z,11.06
2022-11-06T17:15:51.699Z,11.02
2022-11-06T17:18:21.513Z,10.98
2022-11-06T17:20:52.155Z,10.95
2022-11-06T17:23:19.314Z,10.91
2022-11-06T17:25:46.923Z,10.86
2022-11-06T17:28:13.564Z,10.89
2022-11-06T17:30:40.330Z,10.86
2022-11-06T17:33:06.982Z,10.86
2022-11-06T17:35:33.528Z,10.85
2022-11-06T17:38:06.130Z,10.74
2022-11-06T17:40:33.744Z,10.52
2022-11-06T17:43:00.260Z,10.41
2022-11-06T17:45:26.679Z,10.35
2022-11-06T17:47:53.774Z,10.32
2022-11-06T17:50:20.239Z,10.30
2022-11-06T17:52:46.972Z,10.32
2022-11-06T17:55:13.535Z,10.29
2022-11-06T17:57:40.135Z,10.27
2022-11-06T18:00:07.283Z,10.33
2022-11-06T18:02:58.980Z,10.36
2022-11-06T18:05:20.184Z,10.26
2022-11-06T18:07:46.596Z,10.16
2022-11-06T18:10:13.017Z,10.08
2022-11-06T18:12:39.478Z,10.07
2022-11-06T18:15:06.540Z,10.12
2022-11-06T18:17:33.001Z,10.16
2022-11-06T18:19:59.427Z,10.17
2022-11-06T18:22:25.865Z,10.16
2022-11-06T18:24:52.269Z,10.16
2022-11-06T18:27:18.742Z,9.97
2022-11-06T18:29:45.253Z,9.86
2022-11-06T18:32:11.678Z,9.90
2022-11-06T18:34:38.183Z,9.92
2022-11-06T18:37:04.680Z,9.88
2022-11-06T18:39:31.139Z,9.89
2022-11-06T18:41:58.881Z,9.91
2022-11-06T18:44:25.430Z,9.89
2022-11-06T18:46:52.034Z,9.74
2022-11-06T18:49:18.436Z,9.66
2022-11-06T18:51:44.980Z,9.70
2022-11-06T18:54:12.127Z,9.66
2022-11-06T18:56:38.925Z,9.66
2022-11-06T18:59:07.573Z,9.59
2022-11-06T19:01:35.256Z,9.47
2022-11-06T19:04:03.632Z,9.43
2022-11-06T19:06:31.045Z,9.37
2022-11-06T19:08:57.936Z,9.28
2022-11-06T19:11:24.448Z,9.19
2022-11-06T19:13:50.903Z,9.14
2022-11-06T19:16:19.435Z,9.20
2022-11-06T19:18:47.216Z,9.15
2022-11-06T19:21:13.985Z,9.14
2022-11-06T19:23:42.444Z,9.18
2022-11-06T19:26:30.763Z,9.19
2022-11-06T19:28:59.694Z,9.15
2022-11-06T19:31:28.621Z,9.20
2022-11-06T19:33:56.315Z,9.19
2022-11-06T19:36:22.747Z,9.04
2022-11-06T19:38:49.152Z,9.04
2022-11-06T19:41:15.561Z,9.11
2022-11-06T19:43:42.024Z,9.15
2022-11-06T19:46:08.638Z,9.14
2022-11-06T19:48:36.067Z,9.14
2022-11-06T19:51:03.012Z,9.12
2022-11-06T19:53:29.570Z,9.14
2022-11-06T19:55:56.762Z,9.10
2022-11-06T19:58:23.248Z,8.93
2022-11-06T20:00:49.792Z,8.90
2022-11-06T20:03:16.996Z,8.81
2022-11-06T20:05:43.646Z,8.68
2022-11-06T20:08:10.357Z,8.77
2022-11-06T20:10:37.313Z,8.79
2022-11-06T20:13:04.446Z,8.77
2022-11-06T20:15:31.330Z,8.64
2022-11-06T20:17:57.846Z,8.55
2022-11-06T20:20:25.846Z,8.59
2022-11-06T20:22:53.316Z,8.52
2022-11-06T20:25:20.079Z,8.40
2022-11-06T20:27:46.556Z,8.33
2022-11-06T20:30:13.903Z,8.28
2022-11-06T20:32:40.516Z,8.32
2022-11-06T20:35:07.705Z,8.36
2022-11-06T20:37:34.455Z,8.42
2022-11-06T20:40:00.898Z,8.44
2022-11-06T20:42:27.405Z,8.40
2022-11-06T20:44:53.826Z,8.38
2022-11-06T20:47:20.375Z,8.38
2022-11-06T20:49:46.808Z,8.41
2022-11-06T20:52:14.804Z,8.46
2022-11-06T20:54:46.786Z,8.44
2022-11-06T20:57:15.703Z,8.32
2022-11-06T20:59:42.576Z,8.20
2022-11-06T21:02:11.868Z,8.14
2022-11-06T21:04:38.667Z,8.21
2022-11-06T21:07:05.374Z,8.30
2022-11-06T21:09:31.836Z,8.28
2022-11-06T21:11:58.443Z,8.23
2022-11-06T21:14:25.030Z,8.13
2022-11-06T21:16:52.568Z,8.16
2022-11-06T21:19:19.047Z,8.15
2022-11-06T21:21:45.527Z,8.09
2022-11-06T21:24:12.207Z,8.07
2022-11-06T21:26:39.150Z,8.07
2022-11-06T21:29:08.011Z,8.10
2022-11-06T21:31:34.627Z,8.10
2022-11-06T21:34:02.878Z,8.08
2022-11-06T21:36:37.369Z,8.06
2022-11-06T21:39:09.217Z,8.08
2022-11-06T21:41:36.413Z,8.09
2022-11-06T21:44:04.674Z,7.93
2022-11-06T21:46:31.207Z,7.96
2022-11-06T21:48:58.295Z,8.00
2022-11-06T21:51:27.295Z,7.92
2022-11-06T21:54:13.128Z,7.83
2022-11-06T21:56:40.811Z,7.80
2022-11-06T21:59:10.239Z,7.77
2022-11-06T22:01:37.652Z,7.71
2022-11-06T22:04:05.079Z,7.72
2022-11-06T22:06:31.542Z,7.73
2022-11-06T22:08:59.795Z,7.82
2022-11-06T22:11:27.465Z,7.78
2022-11-06T22:13:55.608Z,7.65
2022-11-06T22:16:26.375Z,7.64
2022-11-06T22:18:53.145Z,7.66
2022-11-06T22:21:22.213Z,7.68
2022-11-06T22:23:49.085Z,7.74
2022-11-06T22:26:18.885Z,7.75
2022-11-06T22:28:45.414Z,7.71
2022-11-06T22:31:12.494Z,7.73
2022-11-06T22:33:39.595Z,7.79
2022-11-06T22:36:14.277Z,7.73
2022-11-06T22:38:42.139Z,7.79
2022-11-06T22:41:13.151Z,7.73
2022-11-06T22:43:40.646Z,7.68
2022-11-06T22:46:33.681Z,7.73
2022-11-06T22:49:00.159Z,7.68
2022-11-06T22:51:29.192Z,7.68
2022-11-06T22:53:56.307Z,7.67
2022-11-06T22:56:24.335Z,7.59
2022-11-06T22:58:59.764Z,7.56
2022-11-06T23:01:29.075Z,7.62
2022-11-06T23:03:58.243Z,7.59
2022-11-06T23:06:26.090Z,7.54
2022-11-06T23:08:52.745Z,7.49
2022-11-06T23:11:19.778Z,7.46
2022-11-06T23:13:46.321Z,7.37
2022-11-06T23:16:38.882Z,7.46
2022-11-06T23:19:05.436Z,7.55
2022-11-06T23:21:31.850Z,7.54
2022-11-06T23:23:58.284Z,7.43
2022-11-06T23:26:24.840Z,7.23
2022-11-06T23:28:51.267Z,7.18
2022-11-06T23:31:17.760Z,7.27
2022-11-06T23:33:44.161Z,7.27
2022-11-06T23:36:15.750Z,7.24
2022-11-06T23:38:43.161Z,7.26
2022-11-06T23:41:30.681Z,7.24
2022-11-06T23:43:58.278Z,7.13
2022-11-06T23:46:27.534Z,7.09
2022-11-06T23:48:54.116Z,7.19
2022-11-06T23:51:20.985Z,7.22
2022-11-06T23:53:47.391Z,7.31
2022-11-06T23:56:14.388Z,7.29
2022-11-06T23:58:41.816Z,7.16
